createdAt,value
2018-12-11T00:00:18.084Z,5.98
2018-12-11T00:02:47.061Z,6.12
2018-12-11T00:05:16.087Z,5.88
2018-12-11T00:07:45.172Z,5.79
2018-12-11T00:10:14.206Z,5.84
2018-12-11T00:12:43.232Z,5.78
2018-12-11T00:15:12.428Z,5.77
2018-12-11T00:17:41.517Z,5.78
2018-12-11T00:20:10.612Z,6.14
2018-12-11T00:22:39.941Z,5.86
2018-12-11T00:25:09.066Z,5.96
2018-12-11T00:27:38.091Z,5.84
2018-12-11T00:30:07.312Z,5.86
2018-12-11T00:32:36.402Z,5.71
2018-12-11T00:35:05.971Z,5.95
2018-12-11T00:37:35.063Z,5.91
2018-12-11T00:40:04.216Z,6.10
2018-12-11T00:42:33.404Z,5.97
2018-12-11T00:45:02.595Z,5.90
2018-12-11T00:47:31.702Z,6.09
2018-12-11T00:50:00.750Z,5.98
2018-12-11T00:52:29.849Z,5.89
2018-12-11T00:54:58.867Z,5.84
2018-12-11T00:57:27.944Z,5.88
2018-12-11T00:59:57.267Z,5.84
2018-12-11T01:02:26.295Z,5.79
2018-12-11T01:04:55.269Z,5.84
2018-12-11T01:07:24.333Z,5.79
2018-12-11T01:09:53.318Z,5.68
2018-12-11T01:12:22.334Z,5.76
2018-12-11T01:14:51.431Z,5.63
2018-12-11T01:17:20.529Z,5.64
2018-12-11T01:19:49.590Z,5.66
2018-12-11T01:22:18.722Z,5.79
2018-12-11T01:24:47.772Z,5.71
2018-12-11T01:27:16.813Z,5.59
2018-12-11T01:29:46.252Z,5.78
2018-12-11T01:32:15.294Z,5.68
2018-12-11T01:34:44.341Z,5.77
2018-12-11T01:37:13.704Z,5.96
2018-12-11T01:39:42.763Z,5.76
2018-12-11T01:42:11.851Z,5.77
2018-12-11T01:44:40.977Z,5.61
2018-12-11T01:47:10.035Z,5.53
2018-12-11T01:49:39.093Z,5.65
2018-12-11T01:52:08.231Z,5.70
2018-12-11T01:54:37.287Z,5.80
2018-12-11T01:57:06.357Z,5.70
2018-12-11T01:59:35.410Z,5.63
2018-12-11T02:02:04.588Z,5.81
2018-12-11T02:04:33.601Z,5.74
2018-12-11T02:07:02.683Z,5.75
2018-12-11T02:09:31.699Z,5.88
2018-12-11T02:12:00.783Z,5.75
2018-12-11T02:14:30.139Z,5.64
2018-12-11T02:16:59.173Z,5.74
2018-12-11T02:19:28.226Z,5.76
2018-12-11T02:21:57.343Z,5.71
2018-12-11T02:24:26.411Z,5.82
2018-12-11T02:26:55.414Z,5.60
2018-12-11T02:29:24.754Z,5.61
2018-12-11T02:31:53.805Z,5.74
2018-12-11T02:34:22.883Z,5.70
2018-12-11T02:36:51.984Z,5.57
2018-12-11T02:39:21.031Z,5.66
2018-12-11T02:41:50.094Z,5.72
2018-12-11T02:44:19.168Z,5.61
2018-12-11T02:46:48.250Z,5.48
2018-12-11T02:49:17.391Z,5.45
2018-12-11T02:51:46.769Z,5.59
2018-12-11T02:54:15.767Z,5.51
2018-12-11T02:56:44.762Z,5.58
2018-12-11T02:59:13.855Z,5.51
2018-12-11T03:01:42.891Z,5.65
2018-12-11T03:04:11.966Z,5.53
2018-12-11T03:06:41.329Z,5.34
2018-12-11T03:09:10.566Z,5.55
2018-12-11T03:11:39.586Z,5.36
2018-12-11T03:14:09.142Z,5.47
2018-12-11T03:16:38.153Z,5.46
2018-12-11T03:19:07.197Z,5.44
2018-12-11T03:21:36.215Z,5.44
2018-12-11T03:24:05.307Z,5.35
2018-12-11T03:26:34.330Z,5.41
2018-12-11T03:29:03.882Z,5.45
2018-12-11T03:31:33.003Z,5.43
2018-12-11T03:34:02.043Z,5.34
2018-12-11T03:36:31.178Z,5.29
2018-12-11T03:39:00.222Z,5.31
2018-12-11T03:41:29.330Z,5.51
2018-12-11T03:43:58.505Z,5.43
2018-12-11T03:46:27.570Z,5.42
2018-12-11T03:48:56.670Z,5.53
2018-12-11T03:51:25.768Z,5.57
2018-12-11T03:53:54.810Z,5.52
2018-12-11T03:56:23.862Z,5.76
2018-12-11T03:58:52.895Z,5.67
2018-12-11T04:01:21.964Z,5.58
2018-12-11T04:03:50.981Z,5.63
2018-12-11T04:06:20.057Z,5.59
2018-12-11T04:08:49.114Z,5.48
2018-12-11T04:11:18.198Z,5.41
2018-12-11T04:13:47.206Z,5.43
2018-12-11T04:16:16.300Z,5.51
2018-12-11T04:18:45.322Z,5.48
2018-12-11T04:21:14.358Z,5.54
2018-12-11T04:23:43.526Z,5.54
2018-12-11T04:26:12.590Z,5.39
2018-12-11T04:28:41.619Z,5.42
2018-12-11T04:31:10.699Z,5.52
2018-12-11T04:33:39.729Z,5.49
2018-12-11T04:36:08.744Z,5.21
2018-12-11T04:38:37.827Z,5.47
2018-12-11T04:41:07.488Z,5.15
2018-12-11T04:43:36.599Z,5.29
2018-12-11T04:46:05.743Z,5.23
2018-12-11T04:48:34.726Z,5.21
2018-12-11T04:51:03.773Z,5.13
2018-12-11T04:53:32.791Z,5.09
2018-12-11T04:56:01.921Z,5.04
2018-12-11T04:58:30.988Z,5.10
2018-12-11T05:01:00.067Z,5.12
2018-12-11T05:03:29.090Z,5.01
2018-12-11T05:05:58.086Z,5.11
2018-12-11T05:08:27.302Z,4.96
2018-12-11T05:10:56.295Z,4.92
2018-12-11T05:13:25.326Z,4.90
2018-12-11T05:15:54.388Z,5.09
2018-12-11T05:18:23.434Z,5.09
2018-12-11T05:20:52.525Z,5.11
2018-12-11T05:23:21.654Z,5.02
2018-12-11T05:25:50.770Z,4.97
2018-12-11T05:28:19.787Z,5.13
2018-12-11T05:30:48.820Z,5.20
2018-12-11T05:33:17.946Z,5.15
2018-12-11T05:35:47.140Z,5.06
2018-12-11T05:38:16.242Z,5.07
2018-12-11T05:40:45.278Z,5.15
2018-12-11T05:43:14.396Z,5.44
2018-12-11T05:45:43.456Z,5.63
2018-12-11T05:48:12.646Z,5.58
2018-12-11T05:50:41.722Z,5.38
2018-12-11T05:53:10.854Z,5.34
2018-12-11T05:55:39.990Z,5.11
2018-12-11T05:58:09.077Z,5.34
2018-12-11T06:00:38.235Z,5.19
2018-12-11T06:03:07.282Z,5.22
2018-12-11T06:05:36.367Z,5.21
2018-12-11T06:08:05.468Z,5.15
2018-12-11T06:10:34.478Z,5.09
2018-12-11T06:13:03.510Z,5.01
2018-12-11T06:15:32.549Z,4.70
2018-12-11T06:18:01.517Z,5.14
2018-12-11T06:20:30.671Z,5.08
2018-12-11T06:22:59.749Z,5.04
2018-12-11T06:25:28.780Z,5.17
2018-12-11T06:27:57.883Z,5.29
2018-12-11T06:30:26.971Z,5.15
2018-12-11T06:32:56.121Z,5.23
2018-12-11T06:35:25.172Z,5.27
2018-12-11T06:37:55.059Z,5.04
2018-12-11T06:40:24.174Z,5.21
2018-12-11T06:42:53.268Z,5.21
2018-12-11T06:45:22.312Z,5.20
2018-12-11T06:47:51.350Z,5.27
2018-12-11T06:50:20.413Z,5.24
2018-12-11T06:52:49.505Z,5.24
2018-12-11T06:55:18.579Z,5.24
2018-12-11T06:57:47.703Z,5.38
2018-12-11T07:00:16.703Z,5.50
2018-12-11T07:02:45.811Z,5.50
2018-12-11T07:05:14.902Z,5.56
2018-12-11T07:07:44.056Z,5.52
2018-12-11T07:10:14.214Z,5.40
2018-12-11T07:12:43.335Z,5.41
2018-12-11T07:15:12.379Z,5.48
2018-12-11T07:17:41.435Z,5.54
2018-12-11T07:20:10.430Z,5.54
2018-12-11T07:22:39.684Z,5.66
2018-12-11T07:25:08.691Z,5.68
2018-12-11T07:27:37.880Z,6.03
2018-12-11T07:30:07.919Z,6.00
2018-12-11T07:32:37.185Z,6.08
2018-12-11T07:35:06.212Z,6.12
2018-12-11T07:37:35.752Z,6.14
2018-12-11T07:40:04.854Z,6.02
2018-12-11T07:42:33.922Z,6.24
2018-12-11T07:45:06.106Z,6.29
2018-12-11T07:47:36.195Z,6.23
2018-12-11T07:50:05.387Z,6.06
2018-12-11T07:52:34.506Z,6.00
2018-12-11T07:55:03.567Z,5.83
2018-12-11T07:57:32.645Z,5.83
2018-12-11T08:00:01.706Z,5.82
2018-12-11T08:02:30.772Z,5.98
2018-12-11T08:04:59.739Z,6.01
2018-12-11T08:07:29.802Z,6.04
2018-12-11T08:09:58.841Z,6.00
2018-12-11T08:12:27.867Z,6.06
2018-12-11T08:14:56.928Z,6.08
2018-12-11T08:17:27.495Z,6.25
2018-12-11T08:19:57.548Z,6.48
2018-12-11T08:22:26.502Z,6.43
2018-12-11T08:24:55.467Z,6.29
2018-12-11T08:27:24.548Z,6.39
2018-12-11T08:29:53.541Z,6.42
2018-12-11T08:32:22.532Z,6.58
2018-12-11T08:34:52.578Z,6.85
2018-12-11T08:37:20.673Z,6.81
2018-12-11T08:39:49.647Z,6.58
2018-12-11T08:42:18.985Z,6.79
2018-12-11T08:44:51.144Z,6.81
2018-12-11T08:47:17.063Z,6.92
2018-12-11T08:49:46.143Z,6.89
2018-12-11T08:52:15.103Z,6.84
2018-12-11T08:54:44.103Z,6.73
2018-12-11T08:57:13.234Z,6.87
2018-12-11T08:59:42.218Z,6.80
2018-12-11T09:02:11.897Z,6.77
2018-12-11T09:04:41.435Z,6.92
2018-12-11T09:07:10.086Z,7.15
2018-12-11T09:09:39.383Z,7.09
2018-12-11T09:12:09.499Z,7.14
2018-12-11T09:14:38.672Z,7.23
2018-12-11T09:17:10.316Z,7.34
2018-12-11T09:19:41.817Z,7.33
2018-12-11T09:24:58.461Z,7.30
2018-12-11T09:27:31.251Z,6.65
2018-12-11T09:30:03.998Z,7.46
2018-12-11T09:32:34.299Z,7.33
2018-12-11T09:35:04.453Z,7.23
2018-12-11T09:37:36.704Z,7.10
2018-12-11T09:40:09.329Z,7.08
2018-12-11T09:42:55.576Z,7.06
2018-12-11T09:45:28.539Z,7.15
2018-12-11T09:48:02.779Z,7.49
2018-12-11T09:50:37.271Z,7.40
2018-12-11T09:53:12.381Z,7.33
2018-12-11T09:55:41.733Z,7.38
2018-12-11T09:58:14.608Z,7.40
2018-12-11T10:00:46.056Z,7.44
2018-12-11T10:03:15.354Z,7.46
2018-12-11T10:05:45.813Z,7.30
2018-12-11T10:08:15.026Z,7.36
2018-12-11T10:10:44.193Z,7.24
2018-12-11T10:13:13.390Z,7.39
2018-12-11T10:15:44.435Z,7.47
2018-12-11T10:18:13.586Z,7.53
2018-12-11T10:20:43.784Z,7.58
2018-12-11T10:23:14.230Z,7.79
2018-12-11T10:25:43.463Z,7.90
2018-12-11T10:28:12.768Z,7.88
2018-12-11T10:30:48.655Z,7.85
2018-12-11T10:33:18.897Z,8.04
2018-12-11T10:35:49.385Z,7.98
2018-12-11T10:38:21.260Z,8.00
2018-12-11T10:40:53.614Z,8.32
2018-12-11T10:43:23.129Z,8.09
2018-12-11T10:45:52.480Z,7.94
2018-12-11T10:48:21.876Z,7.91
2018-12-11T10:50:51.556Z,7.76
2018-12-11T10:53:20.841Z,7.83
2018-12-11T10:55:50.008Z,7.82
2018-12-11T10:58:19.470Z,7.86
2018-12-11T11:00:53.601Z,7.95
2018-12-11T11:03:22.655Z,7.77
2018-12-11T11:05:51.840Z,7.90
2018-12-11T11:08:21.143Z,7.86
2018-12-11T11:10:50.358Z,7.82
2018-12-11T11:13:19.480Z,7.86
2018-12-11T11:15:48.689Z,7.82
2018-12-11T11:18:17.728Z,7.95
2018-12-11T11:20:46.694Z,7.83
2018-12-11T11:23:15.878Z,7.80
2018-12-11T11:25:44.907Z,7.87
2018-12-11T11:28:13.912Z,7.77
2018-12-11T11:30:42.926Z,7.84
2018-12-11T11:33:11.947Z,7.83
2018-12-11T11:35:40.952Z,7.85
2018-12-11T11:38:10.034Z,7.97
2018-12-11T11:40:39.019Z,8.03
2018-12-11T11:43:07.981Z,7.91
2018-12-11T11:45:37.368Z,8.09
2018-12-11T11:48:06.348Z,8.12
2018-12-11T11:50:35.439Z,7.89
2018-12-11T11:53:04.538Z,7.95
2018-12-11T11:55:33.568Z,8.05
2018-12-11T11:58:02.549Z,7.97
2018-12-11T12:00:31.954Z,8.01
2018-12-11T12:03:00.922Z,7.96
2018-12-11T12:05:29.917Z,8.20
2018-12-11T12:07:59.228Z,8.10
2018-12-11T12:10:28.196Z,8.16
2018-12-11T12:13:01.264Z,8.37
2018-12-11T12:15:30.223Z,8.29
2018-12-11T12:17:59.177Z,7.90
2018-12-11T12:20:28.307Z,7.90
2018-12-11T12:22:57.372Z,7.52
2018-12-11T12:25:26.371Z,7.56
2018-12-11T12:27:55.400Z,7.48
2018-12-11T12:30:24.451Z,7.40
2018-12-11T12:32:53.413Z,7.30
2018-12-11T12:35:22.435Z,7.39
2018-12-11T12:37:51.432Z,7.46
2018-12-11T12:40:20.426Z,7.49
2018-12-11T12:42:49.423Z,7.55
2018-12-11T12:45:18.472Z,7.50
2018-12-11T12:47:47.516Z,7.58
2018-12-11T12:50:16.520Z,7.79
2018-12-11T12:52:45.427Z,7.74
2018-12-11T12:55:14.383Z,7.59
2018-12-11T12:57:43.642Z,7.75
2018-12-11T13:00:12.671Z,7.64
2018-12-11T13:02:41.614Z,7.53
2018-12-11T13:05:10.994Z,7.27
2018-12-11T13:07:40.001Z,7.21
2018-12-11T13:10:09.111Z,7.36
2018-12-11T13:12:38.222Z,7.40
2018-12-11T13:15:08.200Z,7.24
2018-12-11T13:17:37.186Z,7.15
2018-12-11T13:20:06.356Z,7.01
2018-12-11T13:22:35.353Z,7.10
2018-12-11T13:25:04.424Z,6.87
2018-12-11T13:27:33.477Z,7.20
2018-12-11T13:30:02.477Z,7.02
2018-12-11T13:32:31.408Z,6.94
2018-12-11T13:35:00.413Z,6.81
2018-12-11T13:37:29.389Z,6.70
2018-12-11T13:39:58.405Z,6.70
2018-12-11T13:42:27.463Z,6.68
2018-12-11T13:44:56.556Z,6.72
2018-12-11T13:47:25.698Z,6.73
2018-12-11T13:49:54.762Z,6.80
2018-12-11T13:52:24.016Z,6.62
2018-12-11T13:54:53.092Z,6.73
2018-12-11T13:57:22.161Z,6.76
2018-12-11T13:59:51.386Z,6.63
2018-12-11T14:02:20.604Z,6.63
2018-12-11T14:04:50.154Z,7.12
2018-12-11T14:07:19.179Z,7.34
2018-12-11T14:09:48.285Z,7.35
2018-12-11T14:12:17.443Z,7.32
2018-12-11T14:14:46.467Z,7.37
2018-12-11T14:17:15.516Z,7.20
2018-12-11T14:19:44.643Z,7.42
2018-12-11T14:22:13.716Z,7.25
2018-12-11T14:24:42.757Z,6.85
2018-12-11T14:27:11.941Z,6.83
2018-12-11T14:29:41.029Z,6.87
2018-12-11T14:32:10.061Z,6.78
2018-12-11T14:34:39.522Z,7.43
2018-12-11T14:37:08.640Z,6.94
2018-12-11T14:39:37.655Z,6.98
2018-12-11T14:42:07.516Z,6.88
2018-12-11T14:44:36.556Z,7.11
2018-12-11T14:47:06.786Z,7.04
2018-12-11T14:49:36.157Z,6.72
2018-12-11T14:52:05.257Z,6.50
2018-12-11T14:54:34.226Z,6.38
2018-12-11T14:57:03.579Z,6.40
2018-12-11T14:59:32.540Z,6.59
2018-12-11T15:02:01.532Z,6.34
2018-12-11T15:04:30.530Z,6.29
2018-12-11T15:06:59.572Z,6.47
2018-12-11T15:09:33.663Z,6.22
2018-12-11T15:12:02.619Z,5.89
2018-12-11T15:14:31.605Z,6.31
2018-12-11T15:17:00.583Z,5.97
2018-12-11T15:19:29.535Z,5.78
2018-12-11T15:21:58.497Z,5.93
2018-12-11T15:24:27.501Z,5.98
2018-12-11T15:26:56.448Z,5.74
2018-12-11T15:29:25.435Z,5.71
2018-12-11T15:31:54.700Z,5.64
2018-12-11T15:34:23.667Z,5.42
2018-12-11T15:36:52.659Z,5.54
2018-12-11T15:39:21.652Z,5.44
2018-12-11T15:41:50.711Z,5.38
2018-12-11T15:44:19.841Z,5.41
2018-12-11T15:46:48.954Z,5.38
2018-12-11T15:49:18.019Z,5.60
2018-12-11T15:51:46.991Z,5.42
2018-12-11T15:54:16.070Z,5.58
2018-12-11T15:56:45.149Z,5.64
2018-12-11T15:59:14.251Z,6.16
2018-12-11T16:01:43.315Z,5.75
2018-12-11T16:04:12.251Z,5.97
2018-12-11T16:06:41.262Z,6.07
2018-12-11T16:09:12.158Z,6.23
2018-12-11T16:11:41.160Z,6.04
2018-12-11T16:14:10.144Z,5.99
2018-12-11T16:16:39.176Z,5.82
2018-12-11T16:19:08.213Z,5.60
2018-12-11T16:21:37.219Z,5.60
2018-12-11T16:24:06.318Z,5.72
2018-12-11T16:26:35.360Z,5.89
2018-12-11T16:29:04.359Z,6.51
2018-12-11T16:31:33.455Z,6.37
2018-12-11T16:34:02.462Z,6.21
2018-12-11T16:36:31.490Z,5.94
2018-12-11T16:39:00.530Z,5.95
2018-12-11T16:41:29.498Z,6.16
2018-12-11T16:43:58.593Z,6.07
2018-12-11T16:46:27.664Z,5.70
2018-12-11T16:48:56.607Z,5.62
2018-12-11T16:51:25.643Z,5.54
2018-12-11T16:53:54.796Z,5.56
2018-12-11T16:56:23.796Z,5.77
2018-12-11T16:58:52.888Z,5.51
2018-12-11T17:01:22.340Z,5.34
2018-12-11T17:03:51.456Z,5.36
2018-12-11T17:06:20.458Z,4.98
2018-12-11T17:08:49.779Z,5.13
2018-12-11T17:11:18.814Z,4.95
2018-12-11T17:13:47.805Z,5.12
2018-12-11T17:16:17.078Z,5.04
2018-12-11T17:18:46.342Z,5.00
2018-12-11T17:21:15.376Z,4.92
2018-12-11T17:23:44.707Z,4.96
2018-12-11T17:26:13.867Z,4.84
2018-12-11T17:28:43.008Z,4.95
2018-12-11T17:31:12.766Z,5.02
2018-12-11T17:33:42.117Z,5.04
2018-12-11T17:36:11.398Z,5.23
2018-12-11T17:38:40.868Z,5.19
2018-12-11T17:41:10.277Z,5.05
2018-12-11T17:43:39.610Z,5.15
2018-12-11T17:46:09.161Z,5.10
2018-12-11T17:48:41.574Z,5.13
2018-12-11T17:51:07.522Z,5.17
2018-12-11T17:53:36.755Z,4.89
2018-12-11T17:56:05.878Z,4.98
2018-12-11T17:58:34.914Z,4.88
2018-12-11T18:01:04.080Z,4.83
2018-12-11T18:03:33.548Z,4.70
2018-12-11T18:06:02.588Z,4.75
2018-12-11T18:08:31.815Z,4.75
2018-12-11T18:11:00.882Z,4.85
2018-12-11T18:13:30.001Z,4.82
2018-12-11T18:15:59.047Z,4.75
2018-12-11T18:18:28.044Z,4.62
2018-12-11T18:20:57.159Z,4.72
2018-12-11T18:23:26.585Z,4.55
2018-12-11T18:25:55.885Z,4.54
2018-12-11T18:28:25.188Z,4.66
2018-12-11T18:30:54.558Z,4.65
2018-12-11T18:33:23.729Z,4.69
2018-12-11T18:35:52.753Z,4.67
2018-12-11T18:38:22.080Z,4.75
2018-12-11T18:40:51.375Z,4.68
2018-12-11T18:43:20.467Z,4.85
2018-12-11T18:45:49.508Z,4.95
2018-12-11T18:48:18.473Z,5.02
2018-12-11T18:50:47.524Z,4.99
2018-12-11T18:53:16.933Z,5.05
2018-12-11T18:55:45.993Z,4.99
2018-12-11T18:58:15.410Z,4.92
2018-12-11T19:00:44.500Z,4.88
2018-12-11T19:03:13.515Z,4.64
2018-12-11T19:05:42.476Z,4.67
2018-12-11T19:08:11.845Z,4.66
2018-12-11T19:10:40.915Z,4.62
2018-12-11T19:13:09.920Z,4.94
2018-12-11T19:15:39.192Z,4.78
2018-12-11T19:18:08.289Z,4.61
2018-12-11T19:20:37.314Z,4.55
2018-12-11T19:23:18.676Z,4.53
2018-12-11T19:25:47.698Z,4.60
2018-12-11T19:28:16.734Z,4.52
2018-12-11T19:30:45.860Z,4.51
2018-12-11T19:33:14.878Z,4.52
2018-12-11T19:35:43.905Z,4.51
2018-12-11T19:38:13.237Z,4.47
2018-12-11T19:40:44.018Z,4.53
2018-12-11T19:43:12.603Z,4.47
2018-12-11T19:45:41.694Z,4.41
2018-12-11T19:48:10.700Z,4.45
2018-12-11T19:50:39.744Z,4.45
2018-12-11T19:53:08.839Z,4.58
2018-12-11T19:55:37.940Z,4.82
2018-12-11T19:58:07.020Z,4.62
2018-12-11T20:00:36.254Z,4.58
2018-12-11T20:03:10.530Z,4.58
2018-12-11T20:05:34.456Z,4.49
2018-12-11T20:08:03.588Z,4.52
2018-12-11T20:10:32.758Z,4.51
2018-12-11T20:13:01.922Z,4.45
2018-12-11T20:15:31.094Z,4.45
2018-12-11T20:18:00.422Z,4.39
2018-12-11T20:20:30.655Z,4.42
2018-12-11T20:23:00.681Z,4.23
2018-12-11T20:25:29.886Z,4.32
2018-12-11T20:27:59.067Z,4.28
2018-12-11T20:30:28.408Z,4.42
2018-12-11T20:32:57.875Z,4.31
2018-12-11T20:35:27.176Z,4.44
2018-12-11T20:37:56.543Z,4.20
2018-12-11T20:40:26.478Z,4.28
2018-12-11T20:42:56.247Z,4.09
2018-12-11T20:45:25.955Z,4.10
2018-12-11T20:47:55.168Z,4.03
2018-12-11T20:50:24.411Z,4.14
2018-12-11T20:52:53.695Z,3.97
2018-12-11T20:55:23.151Z,3.96
2018-12-11T20:57:52.467Z,4.01
2018-12-11T21:00:22.587Z,4.04
2018-12-11T21:02:51.934Z,3.92
2018-12-11T21:05:21.242Z,3.99
2018-12-11T21:07:50.749Z,3.92
2018-12-11T21:10:20.084Z,4.03
2018-12-11T21:12:49.351Z,3.97
2018-12-11T21:15:18.751Z,3.94
2018-12-11T21:17:49.848Z,3.91
2018-12-11T21:20:19.122Z,3.87
2018-12-11T21:22:48.682Z,3.87
2018-12-11T21:25:19.141Z,3.84
2018-12-11T21:27:48.619Z,3.66
2018-12-11T21:30:18.196Z,3.60
2018-12-11T21:32:47.554Z,3.52
2018-12-11T21:35:16.880Z,3.59
2018-12-11T21:37:46.469Z,3.66
2018-12-11T21:40:15.949Z,3.89
2018-12-11T21:42:45.316Z,3.89
2018-12-11T21:45:15.019Z,4.07
2018-12-11T21:47:44.784Z,3.87
2018-12-11T21:50:14.299Z,3.80
2018-12-11T21:52:45.225Z,3.92
2018-12-11T21:55:14.553Z,3.87
2018-12-11T21:57:43.784Z,4.18
2018-12-11T22:00:13.349Z,3.85
2018-12-11T22:02:42.645Z,4.05
2018-12-11T22:05:13.013Z,3.98
2018-12-11T22:07:43.210Z,4.20
2018-12-11T22:10:12.426Z,4.18
2018-12-11T22:12:43.061Z,4.08
2018-12-11T22:15:12.441Z,3.97
2018-12-11T22:17:42.024Z,4.03
2018-12-11T22:20:11.267Z,3.98
2018-12-11T22:22:40.494Z,4.17
2018-12-11T22:25:09.772Z,4.23
2018-12-11T22:27:38.975Z,4.08
2018-12-11T22:30:08.401Z,3.96
2018-12-11T22:32:38.159Z,4.02
2018-12-11T22:35:08.128Z,4.06
2018-12-11T22:37:38.052Z,3.86
2018-12-11T22:40:07.566Z,3.82
2018-12-11T22:42:36.879Z,3.69
2018-12-11T22:45:07.015Z,3.72
2018-12-11T22:47:36.316Z,3.87
2018-12-11T22:50:06.214Z,4.00
2018-12-11T22:52:35.654Z,3.68
2018-12-11T22:55:04.805Z,3.73
2018-12-11T22:57:34.101Z,3.95
2018-12-11T23:00:04.008Z,3.68
2018-12-11T23:02:33.871Z,3.69
2018-12-11T23:05:03.297Z,3.64
2018-12-11T23:07:32.455Z,3.79
2018-12-11T23:10:01.670Z,3.52
2018-12-11T23:12:30.710Z,3.61
2018-12-11T23:15:01.019Z,3.49
2018-12-11T23:17:31.085Z,3.56
2018-12-11T23:20:00.487Z,3.44
2018-12-11T23:22:30.804Z,3.36
2018-12-11T23:25:00.170Z,3.36
2018-12-11T23:27:29.204Z,3.47
2018-12-11T23:29:59.808Z,3.35
2018-12-11T23:32:28.851Z,3.46
2018-12-11T23:34:58.249Z,3.53
2018-12-11T23:37:28.256Z,3.77
2018-12-11T23:39:58.310Z,3.53
2018-12-11T23:42:27.962Z,3.59
2018-12-11T23:44:57.262Z,3.58
2018-12-11T23:47:26.357Z,3.72
2018-12-11T23:49:55.474Z,3.82
2018-12-11T23:52:24.655Z,3.79
2018-12-11T23:54:53.946Z,3.75
2018-12-11T23:57:23.141Z,3.83
2018-12-11T23:59:52.560Z,3.88
